sensor_id;sensor_type;location;lat;lon;timestamp;P1;durP1;ratioP1;P2;durP2;ratioP2
43580;SDS011;29175;51.030;4.606;2023-11-25T00:01:21;11.07;;;2.33;;
43580;SDS011;29175;51.030;4.606;2023-11-25T00:03:47;7.07;;;1.85;;
43580;SDS011;29175;51.030;4.606;2023-11-25T00:06:12;8.10;;;1.90;;
43580;SDS011;29175;51.030;4.606;2023-11-25T00:08:45;9.77;;;2.38;;
43580;SDS011;29175;51.030;4.606;2023-11-25T00:11:12;10.48;;;2.30;;
43580;SDS011;29175;51.030;4.606;2023-11-25T00:13:39;10.80;;;2.13;;
43580;SDS011;29175;51.030;4.606;2023-11-25T00:16:07;8.43;;;3.05;;
43580;SDS011;29175;51.030;4.606;2023-11-25T00:18:34;4.10;;;1.90;;
43580;SDS011;29175;51.030;4.606;2023-11-25T00:21:00;7.13;;;2.40;;
43580;SDS011;29175;51.030;4.606;2023-11-25T00:23:28;9.32;;;2.30;;
43580;SDS011;29175;51.030;4.606;2023-11-25T00:25:55;10.50;;;2.25;;
43580;SDS011;29175;51.030;4.606;2023-11-25T00:28:21;6.93;;;2.13;;
43580;SDS011;29175;51.030;4.606;2023-11-25T00:30:48;13.05;;;3.00;;
43580;SDS011;29175;51.030;4.606;2023-11-25T00:33:14;4.47;;;1.73;;
43580;SDS011;29175;51.030;4.606;2023-11-25T00:35:41;7.10;;;2.13;;
43580;SDS011;29175;51.030;4.606;2023-11-25T00:38:09;6.43;;;2.20;;
43580;SDS011;29175;51.030;4.606;2023-11-25T00:40:37;11.65;;;2.28;;
43580;SDS011;29175;51.030;4.606;2023-11-25T00:43:03;9.60;;;2.05;;
43580;SDS011;29175;51.030;4.606;2023-11-25T00:45:29;7.43;;;2.30;;
43580;SDS011;29175;51.030;4.606;2023-11-25T00:47:56;6.03;;;1.80;;
43580;SDS011;29175;51.030;4.606;2023-11-25T00:50:23;13.52;;;2.22;;
43580;SDS011;29175;51.030;4.606;2023-11-25T00:52:51;10.77;;;2.28;;
43580;SDS011;29175;51.030;4.606;2023-11-25T00:55:18;24.80;;;2.67;;
43580;SDS011;29175;51.030;4.606;2023-11-25T00:57:44;4.60;;;1.90;;
43580;SDS011;29175;51.030;4.606;2023-11-25T01:00:11;11.85;;;2.55;;
43580;SDS011;29175;51.030;4.606;2023-11-25T01:05:09;6.70;;;2.13;;
43580;SDS011;29175;51.030;4.606;2023-11-25T01:07:36;8.07;;;2.22;;
43580;SDS011;29175;51.030;4.606;2023-11-25T01:10:02;14.18;;;2.28;;
43580;SDS011;29175;51.030;4.606;2023-11-25T01:12:29;10.73;;;2.20;;
43580;SDS011;29175;51.030;4.606;2023-11-25T01:14:56;9.30;;;2.03;;
43580;SDS011;29175;51.030;4.606;2023-11-25T01:17:22;12.18;;;2.30;;
43580;SDS011;29175;51.030;4.606;2023-11-25T01:19:53;15.23;;;2.97;;
43580;SDS011;29175;51.030;4.606;2023-11-25T01:22:25;13.77;;;2.45;;
43580;SDS011;29175;51.030;4.606;2023-11-25T01:24:54;12.50;;;2.70;;
43580;SDS011;29175;51.030;4.606;2023-11-25T01:27:21;13.10;;;2.35;;
43580;SDS011;29175;51.030;4.606;2023-11-25T01:29:49;14.02;;;2.78;;
43580;SDS011;29175;51.030;4.606;2023-11-25T01:32:16;20.88;;;3.00;;
43580;SDS011;29175;51.030;4.606;2023-11-25T01:34:42;4.90;;;2.15;;
43580;SDS011;29175;51.030;4.606;2023-11-25T01:37:08;10.63;;;2.30;;
43580;SDS011;29175;51.030;4.606;2023-11-25T01:39:33;12.77;;;2.53;;
43580;SDS011;29175;51.030;4.606;2023-11-25T01:41:59;13.95;;;2.45;;
43580;SDS011;29175;51.030;4.606;2023-11-25T01:44:28;19.65;;;2.72;;
43580;SDS011;29175;51.030;4.606;2023-11-25T01:46:56;16.35;;;2.50;;
43580;SDS011;29175;51.030;4.606;2023-11-25T01:49:24;21.95;;;2.83;;
43580;SDS011;29175;51.030;4.606;2023-11-25T01:51:50;10.10;;;2.35;;
43580;SDS011;29175;51.030;4.606;2023-11-25T01:54:18;10.45;;;2.15;;
43580;SDS011;29175;51.030;4.606;2023-11-25T01:56:46;10.07;;;2.40;;
43580;SDS011;29175;51.030;4.606;2023-11-25T01:59:15;13.70;;;3.05;;
43580;SDS011;29175;51.030;4.606;2023-11-25T02:01:43;16.92;;;2.63;;
43580;SDS011;29175;51.030;4.606;2023-11-25T02:04:10;10.13;;;2.25;;
43580;SDS011;29175;51.030;4.606;2023-11-25T02:06:36;13.13;;;2.50;;
43580;SDS011;29175;51.030;4.606;2023-11-25T02:09:02;17.38;;;3.03;;
43580;SDS011;29175;51.030;4.606;2023-11-25T02:11:28;17.75;;;3.08;;
43580;SDS011;29175;51.030;4.606;2023-11-25T02:13:54;15.30;;;3.15;;
43580;SDS011;29175;51.030;4.606;2023-11-25T02:16:19;18.55;;;2.85;;
43580;SDS011;29175;51.030;4.606;2023-11-25T02:18:45;27.35;;;3.25;;
43580;SDS011;29175;51.030;4.606;2023-11-25T02:21:11;12.38;;;3.67;;
43580;SDS011;29175;51.030;4.606;2023-11-25T02:23:37;12.18;;;2.45;;
43580;SDS011;29175;51.030;4.606;2023-11-25T02:26:05;15.50;;;2.95;;
43580;SDS011;29175;51.030;4.606;2023-11-25T02:28:32;9.02;;;2.47;;
43580;SDS011;29175;51.030;4.606;2023-11-25T02:33:31;6.15;;;2.42;;
43580;SDS011;29175;51.030;4.606;2023-11-25T02:36:01;9.60;;;2.40;;
43580;SDS011;29175;51.030;4.606;2023-11-25T02:38:28;21.52;;;2.33;;
43580;SDS011;29175;51.030;4.606;2023-11-25T02:40:54;6.75;;;2.08;;
43580;SDS011;29175;51.030;4.606;2023-11-25T02:43:19;20.85;;;2.38;;
43580;SDS011;29175;51.030;4.606;2023-11-25T02:45:46;17.35;;;2.60;;
43580;SDS011;29175;51.030;4.606;2023-11-25T02:48:13;13.90;;;2.40;;
43580;SDS011;29175;51.030;4.606;2023-11-25T02:50:40;13.00;;;2.55;;
43580;SDS011;29175;51.030;4.606;2023-11-25T02:53:08;11.30;;;2.45;;
43580;SDS011;29175;51.030;4.606;2023-11-25T02:55:34;12.77;;;2.47;;
43580;SDS011;29175;51.030;4.606;2023-11-25T02:58:02;11.73;;;3.15;;
43580;SDS011;29175;51.030;4.606;2023-11-25T03:00:29;16.50;;;2.53;;
43580;SDS011;29175;51.030;4.606;2023-11-25T03:02:58;11.35;;;2.83;;
43580;SDS011;29175;51.030;4.606;2023-11-25T03:05:36;12.98;;;2.45;;
43580;SDS011;29175;51.030;4.606;2023-11-25T03:08:02;17.88;;;3.75;;
43580;SDS011;29175;51.030;4.606;2023-11-25T03:10:30;14.40;;;2.42;;
43580;SDS011;29175;51.030;4.606;2023-11-25T03:12:56;11.93;;;2.58;;
43580;SDS011;29175;51.030;4.606;2023-11-25T03:15:21;11.00;;;2.28;;
43580;SDS011;29175;51.030;4.606;2023-11-25T03:17:47;11.07;;;2.30;;
43580;SDS011;29175;51.030;4.606;2023-11-25T03:20:13;8.00;;;2.83;;
43580;SDS011;29175;51.030;4.606;2023-11-25T03:22:40;9.82;;;2.00;;
43580;SDS011;29175;51.030;4.606;2023-11-25T03:25:05;13.63;;;2.50;;
43580;SDS011;29175;51.030;4.606;2023-11-25T03:27:32;9.02;;;2.65;;
43580;SDS011;29175;51.030;4.606;2023-11-25T03:30:04;16.85;;;2.67;;
43580;SDS011;29175;51.030;4.606;2023-11-25T03:32:34;13.10;;;3.05;;
43580;SDS011;29175;51.030;4.606;2023-11-25T03:35:00;14.60;;;2.60;;
43580;SDS011;29175;51.030;4.606;2023-11-25T03:37:28;10.43;;;2.28;;
43580;SDS011;29175;51.030;4.606;2023-11-25T03:39:55;14.70;;;3.00;;
43580;SDS011;29175;51.030;4.606;2023-11-25T03:42:21;14.68;;;2.67;;
43580;SDS011;29175;51.030;4.606;2023-11-25T03:44:47;13.70;;;2.80;;
43580;SDS011;29175;51.030;4.606;2023-11-25T03:47:14;10.77;;;2.83;;
43580;SDS011;29175;51.030;4.606;2023-11-25T03:49:40;17.08;;;2.63;;
43580;SDS011;29175;51.030;4.606;2023-11-25T03:52:06;10.38;;;2.08;;
43580;SDS011;29175;51.030;4.606;2023-11-25T03:54:33;12.38;;;2.20;;
43580;SDS011;29175;51.030;4.606;2023-11-25T03:59:27;19.73;;;3.70;;
43580;SDS011;29175;51.030;4.606;2023-11-25T04:01:54;12.73;;;2.88;;
43580;SDS011;29175;51.030;4.606;2023-11-25T04:04:20;8.77;;;3.00;;
43580;SDS011;29175;51.030;4.606;2023-11-25T04:06:49;10.63;;;2.80;;
43580;SDS011;29175;51.030;4.606;2023-11-25T04:09:16;9.93;;;2.77;;
43580;SDS011;29175;51.030;4.606;2023-11-25T04:11:42;15.00;;;3.30;;
43580;SDS011;29175;51.030;4.606;2023-11-25T04:14:08;17.17;;;3.13;;
43580;SDS011;29175;51.030;4.606;2023-11-25T04:16:34;13.82;;;2.92;;
43580;SDS011;29175;51.030;4.606;2023-11-25T04:19:00;14.82;;;2.95;;
43580;SDS011;29175;51.030;4.606;2023-11-25T04:21:27;10.95;;;2.80;;
43580;SDS011;29175;51.030;4.606;2023-11-25T04:23:54;14.50;;;3.00;;
43580;SDS011;29175;51.030;4.606;2023-11-25T04:26:23;19.33;;;4.57;;
43580;SDS011;29175;51.030;4.606;2023-11-25T04:31:18;18.30;;;3.08;;
43580;SDS011;29175;51.030;4.606;2023-11-25T04:33:45;14.30;;;3.40;;
43580;SDS011;29175;51.030;4.606;2023-11-25T04:36:11;19.08;;;3.35;;
43580;SDS011;29175;51.030;4.606;2023-11-25T04:38:39;15.57;;;3.35;;
43580;SDS011;29175;51.030;4.606;2023-11-25T04:41:06;19.27;;;3.50;;
43580;SDS011;29175;51.030;4.606;2023-11-25T04:43:33;10.30;;;3.40;;
43580;SDS011;29175;51.030;4.606;2023-11-25T04:45:59;19.48;;;3.90;;
43580;SDS011;29175;51.030;4.606;2023-11-25T04:48:30;18.45;;;3.25;;
43580;SDS011;29175;51.030;4.606;2023-11-25T04:50:58;19.23;;;3.40;;
43580;SDS011;29175;51.030;4.606;2023-11-25T04:53:25;17.27;;;3.47;;
43580;SDS011;29175;51.030;4.606;2023-11-25T04:55:52;20.10;;;3.33;;
43580;SDS011;29175;51.030;4.606;2023-11-25T04:58:18;24.00;;;3.45;;
43580;SDS011;29175;51.030;4.606;2023-11-25T05:00:44;24.98;;;3.97;;
43580;SDS011;29175;51.030;4.606;2023-11-25T05:03:11;15.10;;;3.40;;
43580;SDS011;29175;51.030;4.606;2023-11-25T05:05:42;29.50;;;4.00;;
43580;SDS011;29175;51.030;4.606;2023-11-25T05:10:34;25.27;;;3.47;;
43580;SDS011;29175;51.030;4.606;2023-11-25T05:13:02;14.77;;;3.35;;
43580;SDS011;29175;51.030;4.606;2023-11-25T05:15:31;15.63;;;2.85;;
43580;SDS011;29175;51.030;4.606;2023-11-25T05:20:28;14.75;;;3.75;;
43580;SDS011;29175;51.030;4.606;2023-11-25T05:22:56;40.00;;;4.13;;
43580;SDS011;29175;51.030;4.606;2023-11-25T05:25:22;17.80;;;3.40;;
43580;SDS011;29175;51.030;4.606;2023-11-25T05:27:49;15.45;;;3.00;;
43580;SDS011;29175;51.030;4.606;2023-11-25T05:30:17;21.15;;;3.58;;
43580;SDS011;29175;51.030;4.606;2023-11-25T05:32:46;18.45;;;4.15;;
43580;SDS011;29175;51.030;4.606;2023-11-25T05:37:43;34.08;;;4.32;;
43580;SDS011;29175;51.030;4.606;2023-11-25T05:40:09;13.95;;;3.38;;
43580;SDS011;29175;51.030;4.606;2023-11-25T05:42:41;24.00;;;3.55;;
43580;SDS011;29175;51.030;4.606;2023-11-25T05:45:13;18.95;;;3.13;;
43580;SDS011;29175;51.030;4.606;2023-11-25T05:47:41;21.02;;;3.08;;
43580;SDS011;29175;51.030;4.606;2023-11-25T05:50:07;17.60;;;3.83;;
43580;SDS011;29175;51.030;4.606;2023-11-25T05:52:35;13.45;;;3.85;;
43580;SDS011;29175;51.030;4.606;2023-11-25T05:55:01;18.33;;;4.22;;
43580;SDS011;29175;51.030;4.606;2023-11-25T05:57:26;17.15;;;3.42;;
43580;SDS011;29175;51.030;4.606;2023-11-25T05:59:53;26.90;;;3.42;;
43580;SDS011;29175;51.030;4.606;2023-11-25T06:02:20;18.35;;;3.78;;
43580;SDS011;29175;51.030;4.606;2023-11-25T06:07:15;18.00;;;3.45;;
43580;SDS011;29175;51.030;4.606;2023-11-25T06:09:41;19.05;;;3.00;;
43580;SDS011;29175;51.030;4.606;2023-11-25T06:12:09;17.60;;;3.50;;
43580;SDS011;29175;51.030;4.606;2023-11-25T06:14:37;16.58;;;3.10;;
43580;SDS011;29175;51.030;4.606;2023-11-25T06:17:03;17.38;;;3.00;;
43580;SDS011;29175;51.030;4.606;2023-11-25T06:19:32;24.98;;;3.38;;
43580;SDS011;29175;51.030;4.606;2023-11-25T06:21:58;24.48;;;3.03;;
43580;SDS011;29175;51.030;4.606;2023-11-25T06:24:29;17.40;;;3.72;;
43580;SDS011;29175;51.030;4.606;2023-11-25T06:26:58;14.65;;;4.43;;
43580;SDS011;29175;51.030;4.606;2023-11-25T06:29:25;13.40;;;2.93;;
43580;SDS011;29175;51.030;4.606;2023-11-25T06:31:51;18.67;;;3.85;;
43580;SDS011;29175;51.030;4.606;2023-11-25T06:34:18;14.57;;;2.60;;
43580;SDS011;29175;51.030;4.606;2023-11-25T06:36:44;18.73;;;2.90;;
43580;SDS011;29175;51.030;4.606;2023-11-25T06:39:11;13.88;;;2.90;;
43580;SDS011;29175;51.030;4.606;2023-11-25T06:44:17;13.63;;;2.65;;
43580;SDS011;29175;51.030;4.606;2023-11-25T06:49:10;17.70;;;2.90;;
43580;SDS011;29175;51.030;4.606;2023-11-25T06:51:39;7.43;;;3.70;;
43580;SDS011;29175;51.030;4.606;2023-11-25T06:54:06;13.02;;;2.58;;
43580;SDS011;29175;51.030;4.606;2023-11-25T06:56:33;8.68;;;2.53;;
43580;SDS011;29175;51.030;4.606;2023-11-25T06:59:00;13.43;;;2.45;;
43580;SDS011;29175;51.030;4.606;2023-11-25T07:01:30;14.45;;;3.05;;
43580;SDS011;29175;51.030;4.606;2023-11-25T07:04:01;18.90;;;3.08;;
43580;SDS011;29175;51.030;4.606;2023-11-25T07:06:31;10.75;;;2.45;;
43580;SDS011;29175;51.030;4.606;2023-11-25T07:08:57;14.73;;;2.50;;
43580;SDS011;29175;51.030;4.606;2023-11-25T07:11:28;11.55;;;2.38;;
43580;SDS011;29175;51.030;4.606;2023-11-25T07:13:56;16.35;;;2.45;;
43580;SDS011;29175;51.030;4.606;2023-11-25T07:16:22;13.35;;;3.30;;
43580;SDS011;29175;51.030;4.606;2023-11-25T07:18:48;15.02;;;2.72;;
43580;SDS011;29175;51.030;4.606;2023-11-25T07:21:14;9.27;;;2.13;;
43580;SDS011;29175;51.030;4.606;2023-11-25T07:23:41;16.38;;;2.55;;
43580;SDS011;29175;51.030;4.606;2023-11-25T07:26:09;8.90;;;2.30;;
43580;SDS011;29175;51.030;4.606;2023-11-25T07:28:38;17.30;;;2.75;;
43580;SDS011;29175;51.030;4.606;2023-11-25T07:31:04;25.15;;;3.33;;
43580;SDS011;29175;51.030;4.606;2023-11-25T07:33:30;16.55;;;3.20;;
43580;SDS011;29175;51.030;4.606;2023-11-25T07:35:56;8.95;;;2.97;;
43580;SDS011;29175;51.030;4.606;2023-11-25T07:38:22;21.25;;;3.53;;
43580;SDS011;29175;51.030;4.606;2023-11-25T07:40:49;12.90;;;3.25;;
43580;SDS011;29175;51.030;4.606;2023-11-25T07:43:15;13.73;;;3.20;;
43580;SDS011;29175;51.030;4.606;2023-11-25T07:45:41;9.13;;;3.78;;
43580;SDS011;29175;51.030;4.606;2023-11-25T07:48:09;13.07;;;3.25;;
43580;SDS011;29175;51.030;4.606;2023-11-25T07:50:36;9.48;;;3.63;;
43580;SDS011;29175;51.030;4.606;2023-11-25T07:53:03;12.20;;;3.15;;
43580;SDS011;29175;51.030;4.606;2023-11-25T07:55:29;8.85;;;3.75;;
43580;SDS011;29175;51.030;4.606;2023-11-25T07:57:55;13.27;;;3.67;;
43580;SDS011;29175;51.030;4.606;2023-11-25T08:00:23;15.23;;;3.80;;
43580;SDS011;29175;51.030;4.606;2023-11-25T08:02:51;13.43;;;3.85;;
43580;SDS011;29175;51.030;4.606;2023-11-25T08:05:24;16.98;;;3.97;;
43580;SDS011;29175;51.030;4.606;2023-11-25T08:07:54;12.60;;;3.55;;
43580;SDS011;29175;51.030;4.606;2023-11-25T08:10:21;15.93;;;3.60;;
43580;SDS011;29175;51.030;4.606;2023-11-25T08:12:49;13.17;;;3.70;;
43580;SDS011;29175;51.030;4.606;2023-11-25T08:15:15;16.50;;;3.38;;
43580;SDS011;29175;51.030;4.606;2023-11-25T08:17:43;14.27;;;2.95;;
43580;SDS011;29175;51.030;4.606;2023-11-25T08:20:10;5.60;;;3.00;;
43580;SDS011;29175;51.030;4.606;2023-11-25T08:22:37;13.40;;;3.10;;
43580;SDS011;29175;51.030;4.606;2023-11-25T08:25:03;5.75;;;2.53;;
43580;SDS011;29175;51.030;4.606;2023-11-25T08:27:34;15.65;;;3.03;;
43580;SDS011;29175;51.030;4.606;2023-11-25T08:30:01;10.82;;;2.80;;
43580;SDS011;29175;51.030;4.606;2023-11-25T08:32:27;21.17;;;3.78;;
43580;SDS011;29175;51.030;4.606;2023-11-25T08:34:56;12.35;;;3.03;;
43580;SDS011;29175;51.030;4.606;2023-11-25T08:37:23;8.10;;;2.75;;
43580;SDS011;29175;51.030;4.606;2023-11-25T08:39:53;18.30;;;3.08;;
43580;SDS011;29175;51.030;4.606;2023-11-25T08:42:21;14.63;;;3.85;;
43580;SDS011;29175;51.030;4.606;2023-11-25T08:44:54;10.32;;;2.67;;
43580;SDS011;29175;51.030;4.606;2023-11-25T08:47:19;6.90;;;2.55;;
43580;SDS011;29175;51.030;4.606;2023-11-25T08:49:46;18.05;;;2.63;;
43580;SDS011;29175;51.030;4.606;2023-11-25T08:52:12;14.15;;;3.10;;
43580;SDS011;29175;51.030;4.606;2023-11-25T08:54:38;10.80;;;3.45;;
43580;SDS011;29175;51.030;4.606;2023-11-25T08:57:04;15.23;;;2.90;;
43580;SDS011;29175;51.030;4.606;2023-11-25T08:59:33;7.28;;;2.63;;
43580;SDS011;29175;51.030;4.606;2023-11-25T09:02:01;14.20;;;2.78;;
43580;SDS011;29175;51.030;4.606;2023-11-25T09:04:31;10.82;;;3.97;;
43580;SDS011;29175;51.030;4.606;2023-11-25T09:07:01;10.05;;;2.50;;
43580;SDS011;29175;51.030;4.606;2023-11-25T09:09:28;12.90;;;2.60;;
43580;SDS011;29175;51.030;4.606;2023-11-25T09:11:55;11.60;;;2.40;;
43580;SDS011;29175;51.030;4.606;2023-11-25T09:14:21;10.35;;;2.75;;
43580;SDS011;29175;51.030;4.606;2023-11-25T09:16:47;7.10;;;2.58;;
43580;SDS011;29175;51.030;4.606;2023-11-25T09:19:14;10.25;;;2.28;;
43580;SDS011;29175;51.030;4.606;2023-11-25T09:21:42;8.75;;;2.38;;
43580;SDS011;29175;51.030;4.606;2023-11-25T09:24:09;10.10;;;2.03;;
43580;SDS011;29175;51.030;4.606;2023-11-25T09:26:35;7.80;;;3.00;;
43580;SDS011;29175;51.030;4.606;2023-11-25T09:29:02;7.90;;;1.70;;
43580;SDS011;29175;51.030;4.606;2023-11-25T09:31:29;6.82;;;2.13;;
43580;SDS011;29175;51.030;4.606;2023-11-25T09:33:57;7.25;;;2.17;;
43580;SDS011;29175;51.030;4.606;2023-11-25T09:36:25;9.88;;;2.70;;
43580;SDS011;29175;51.030;4.606;2023-11-25T09:38:51;8.80;;;2.20;;
43580;SDS011;29175;51.030;4.606;2023-11-25T09:41:19;7.53;;;2.00;;
43580;SDS011;29175;51.030;4.606;2023-11-25T09:43:46;5.22;;;1.70;;
43580;SDS011;29175;51.030;4.606;2023-11-25T09:46:13;6.38;;;1.98;;
43580;SDS011;29175;51.030;4.606;2023-11-25T09:48:39;7.68;;;2.20;;
43580;SDS011;29175;51.030;4.606;2023-11-25T09:51:07;12.80;;;2.30;;
43580;SDS011;29175;51.030;4.606;2023-11-25T09:53:41;5.97;;;2.17;;
43580;SDS011;29175;51.030;4.606;2023-11-25T09:56:09;7.63;;;1.92;;
43580;SDS011;29175;51.030;4.606;2023-11-25T10:01:05;6.40;;;2.40;;
43580;SDS011;29175;51.030;4.606;2023-11-25T10:03:40;7.22;;;2.05;;
43580;SDS011;29175;51.030;4.606;2023-11-25T10:06:11;8.35;;;2.10;;
43580;SDS011;29175;51.030;4.606;2023-11-25T10:08:38;4.78;;;1.88;;
43580;SDS011;29175;51.030;4.606;2023-11-25T10:11:05;7.05;;;1.80;;
43580;SDS011;29175;51.030;4.606;2023-11-25T10:13:43;13.30;;;1.88;;
43580;SDS011;29175;51.030;4.606;2023-11-25T10:16:09;5.38;;;1.60;;
43580;SDS011;29175;51.030;4.606;2023-11-25T10:18:37;7.72;;;1.73;;
43580;SDS011;29175;51.030;4.606;2023-11-25T10:21:04;9.20;;;2.05;;
43580;SDS011;29175;51.030;4.606;2023-11-25T10:23:31;10.85;;;2.20;;
43580;SDS011;29175;51.030;4.606;2023-11-25T10:26:00;10.75;;;2.00;;
43580;SDS011;29175;51.030;4.606;2023-11-25T10:30:58;11.98;;;3.72;;
43580;SDS011;29175;51.030;4.606;2023-11-25T10:33:27;10.88;;;2.85;;
43580;SDS011;29175;51.030;4.606;2023-11-25T10:35:56;14.57;;;2.50;;
43580;SDS011;29175;51.030;4.606;2023-11-25T10:38:22;11.63;;;2.45;;
43580;SDS011;29175;51.030;4.606;2023-11-25T10:43:28;7.47;;;2.03;;
43580;SDS011;29175;51.030;4.606;2023-11-25T10:46:06;10.75;;;2.47;;
43580;SDS011;29175;51.030;4.606;2023-11-25T10:48:34;6.13;;;2.25;;
43580;SDS011;29175;51.030;4.606;2023-11-25T10:51:03;9.30;;;2.65;;
43580;SDS011;29175;51.030;4.606;2023-11-25T10:53:30;6.38;;;2.13;;
43580;SDS011;29175;51.030;4.606;2023-11-25T10:55:59;9.93;;;2.22;;
43580;SDS011;29175;51.030;4.606;2023-11-25T10:58:25;4.03;;;2.00;;
43580;SDS011;29175;51.030;4.606;2023-11-25T11:00:56;9.88;;;2.67;;
43580;SDS011;29175;51.030;4.606;2023-11-25T11:03:36;12.30;;;1.90;;
43580;SDS011;29175;51.030;4.606;2023-11-25T11:06:23;13.98;;;2.08;;
43580;SDS011;29175;51.030;4.606;2023-11-25T11:08:55;13.45;;;2.75;;
43580;SDS011;29175;51.030;4.606;2023-11-25T11:14:27;10.35;;;2.60;;
43580;SDS011;29175;51.030;4.606;2023-11-25T11:22:24;11.27;;;1.80;;
43580;SDS011;29175;51.030;4.606;2023-11-25T11:30:21;8.68;;;2.67;;
43580;SDS011;29175;51.030;4.606;2023-11-25T11:32:57;9.65;;;1.90;;
43580;SDS011;29175;51.030;4.606;2023-11-25T11:35:36;5.47;;;2.03;;
43580;SDS011;29175;51.030;4.606;2023-11-25T11:38:21;3.53;;;1.90;;
43580;SDS011;29175;51.030;4.606;2023-11-25T11:40:53;8.87;;;2.20;;
43580;SDS011;29175;51.030;4.606;2023-11-25T11:43:40;12.30;;;2.30;;
43580;SDS011;29175;51.030;4.606;2023-11-25T11:46:07;7.88;;;1.63;;
43580;SDS011;29175;51.030;4.606;2023-11-25T11:48:34;5.72;;;1.48;;
43580;SDS011;29175;51.030;4.606;2023-11-25T11:51:03;6.53;;;1.60;;
43580;SDS011;29175;51.030;4.606;2023-11-25T11:53:35;11.32;;;1.70;;
43580;SDS011;29175;51.030;4.606;2023-11-25T11:56:02;7.03;;;1.90;;
43580;SDS011;29175;51.030;4.606;2023-11-25T11:58:28;7.10;;;1.75;;
43580;SDS011;29175;51.030;4.606;2023-11-25T12:03:32;8.10;;;1.73;;
43580;SDS011;29175;51.030;4.606;2023-11-25T12:05:59;10.35;;;2.10;;
43580;SDS011;29175;51.030;4.606;2023-11-25T12:08:26;10.23;;;2.05;;
43580;SDS011;29175;51.030;4.606;2023-11-25T12:10:53;7.05;;;2.00;;
43580;SDS011;29175;51.030;4.606;2023-11-25T12:13:26;11.27;;;2.35;;
43580;SDS011;29175;51.030;4.606;2023-11-25T12:15:56;16.85;;;2.65;;
43580;SDS011;29175;51.030;4.606;2023-11-25T12:18:32;10.23;;;2.40;;
43580;SDS011;29175;51.030;4.606;2023-11-25T12:21:00;7.40;;;1.90;;
43580;SDS011;29175;51.030;4.606;2023-11-25T12:23:27;11.27;;;2.50;;
43580;SDS011;29175;51.030;4.606;2023-11-25T12:25:54;12.90;;;2.72;;
43580;SDS011;29175;51.030;4.606;2023-11-25T12:28:24;13.38;;;2.17;;
43580;SDS011;29175;51.030;4.606;2023-11-25T12:30:50;6.95;;;1.80;;
43580;SDS011;29175;51.030;4.606;2023-11-25T12:33:17;9.70;;;2.03;;
43580;SDS011;29175;51.030;4.606;2023-11-25T12:35:44;11.65;;;2.17;;
43580;SDS011;29175;51.030;4.606;2023-11-25T12:38:10;11.45;;;2.17;;
43580;SDS011;29175;51.030;4.606;2023-11-25T12:40:38;10.38;;;2.28;;
43580;SDS011;29175;51.030;4.606;2023-11-25T12:43:08;12.40;;;2.25;;
43580;SDS011;29175;51.030;4.606;2023-11-25T12:48:05;7.75;;;2.50;;
43580;SDS011;29175;51.030;4.606;2023-11-25T12:50:32;12.50;;;2.50;;
43580;SDS011;29175;51.030;4.606;2023-11-25T12:53:04;10.65;;;2.45;;
43580;SDS011;29175;51.030;4.606;2023-11-25T13:00:54;12.75;;;2.70;;
43580;SDS011;29175;51.030;4.606;2023-11-25T13:03:23;10.50;;;2.50;;
43580;SDS011;29175;51.030;4.606;2023-11-25T13:05:58;9.77;;;2.50;;
43580;SDS011;29175;51.030;4.606;2023-11-25T13:08:30;7.70;;;2.47;;
43580;SDS011;29175;51.030;4.606;2023-11-25T13:10:59;13.30;;;2.50;;
43580;SDS011;29175;51.030;4.606;2023-11-25T13:13:29;8.60;;;2.60;;
43580;SDS011;29175;51.030;4.606;2023-11-25T13:15:55;7.82;;;2.22;;
43580;SDS011;29175;51.030;4.606;2023-11-25T13:18:22;17.73;;;2.72;;
43580;SDS011;29175;51.030;4.606;2023-11-25T13:20:49;8.48;;;2.42;;
43580;SDS011;29175;51.030;4.606;2023-11-25T13:23:16;11.75;;;2.25;;
43580;SDS011;29175;51.030;4.606;2023-11-25T13:25:43;18.13;;;3.90;;
43580;SDS011;29175;51.030;4.606;2023-11-25T13:28:09;12.27;;;2.40;;
43580;SDS011;29175;51.030;4.606;2023-11-25T13:30:35;12.38;;;2.67;;
43580;SDS011;29175;51.030;4.606;2023-11-25T13:33:02;11.52;;;2.90;;
43580;SDS011;29175;51.030;4.606;2023-11-25T13:35:31;11.48;;;2.22;;
43580;SDS011;29175;51.030;4.606;2023-11-25T13:37:57;9.57;;;2.97;;
43580;SDS011;29175;51.030;4.606;2023-11-25T13:40:26;21.90;;;2.90;;
43580;SDS011;29175;51.030;4.606;2023-11-25T13:43:01;15.00;;;2.38;;
43580;SDS011;29175;51.030;4.606;2023-11-25T13:45:29;11.50;;;2.33;;
43580;SDS011;29175;51.030;4.606;2023-11-25T13:47:56;11.85;;;3.45;;
43580;SDS011;29175;51.030;4.606;2023-11-25T13:50:23;18.33;;;2.47;;
43580;SDS011;29175;51.030;4.606;2023-11-25T13:52:50;15.93;;;3.25;;
43580;SDS011;29175;51.030;4.606;2023-11-25T13:55:16;9.20;;;2.35;;
43580;SDS011;29175;51.030;4.606;2023-11-25T13:57:44;18.63;;;2.38;;
43580;SDS011;29175;51.030;4.606;2023-11-25T14:00:10;18.98;;;2.65;;
43580;SDS011;29175;51.030;4.606;2023-11-25T14:02:37;10.25;;;2.33;;
43580;SDS011;29175;51.030;4.606;2023-11-25T14:05:03;12.18;;;2.05;;
43580;SDS011;29175;51.030;4.606;2023-11-25T14:07:29;14.00;;;2.60;;
43580;SDS011;29175;51.030;4.606;2023-11-25T14:09:56;15.02;;;2.72;;
43580;SDS011;29175;51.030;4.606;2023-11-25T14:12:24;16.23;;;2.55;;
43580;SDS011;29175;51.030;4.606;2023-11-25T14:14:49;19.55;;;2.85;;
43580;SDS011;29175;51.030;4.606;2023-11-25T14:17:20;13.27;;;2.30;;
43580;SDS011;29175;51.030;4.606;2023-11-25T14:19:45;17.15;;;2.58;;
43580;SDS011;29175;51.030;4.606;2023-11-25T14:22:11;12.10;;;2.25;;
43580;SDS011;29175;51.030;4.606;2023-11-25T14:24:39;21.88;;;3.67;;
43580;SDS011;29175;51.030;4.606;2023-11-25T14:27:04;12.63;;;2.53;;
43580;SDS011;29175;51.030;4.606;2023-11-25T14:29:30;10.68;;;2.30;;
43580;SDS011;29175;51.030;4.606;2023-11-25T14:31:56;6.85;;;2.85;;
43580;SDS011;29175;51.030;4.606;2023-11-25T14:34:22;11.10;;;2.70;;
43580;SDS011;29175;51.030;4.606;2023-11-25T14:36:47;8.35;;;2.50;;
43580;SDS011;29175;51.030;4.606;2023-11-25T14:39:13;11.52;;;2.67;;
43580;SDS011;29175;51.030;4.606;2023-11-25T14:41:45;13.63;;;2.50;;
43580;SDS011;29175;51.030;4.606;2023-11-25T14:44:13;20.23;;;3.17;;
43580;SDS011;29175;51.030;4.606;2023-11-25T14:46:39;12.38;;;2.60;;
43580;SDS011;29175;51.030;4.606;2023-11-25T14:49:05;10.63;;;2.90;;
43580;SDS011;29175;51.030;4.606;2023-11-25T14:51:31;12.35;;;3.13;;
43580;SDS011;29175;51.030;4.606;2023-11-25T14:53:57;12.32;;;3.63;;
43580;SDS011;29175;51.030;4.606;2023-11-25T14:56:22;8.77;;;2.60;;
43580;SDS011;29175;51.030;4.606;2023-11-25T14:58:48;15.85;;;3.08;;
43580;SDS011;29175;51.030;4.606;2023-11-25T15:01:14;17.10;;;2.58;;
43580;SDS011;29175;51.030;4.606;2023-11-25T15:03:42;9.68;;;2.72;;
43580;SDS011;29175;51.030;4.606;2023-11-25T15:06:08;12.95;;;3.33;;
43580;SDS011;29175;51.030;4.606;2023-11-25T15:08:35;23.35;;;3.63;;
43580;SDS011;29175;51.030;4.606;2023-11-25T15:11:04;13.70;;;3.08;;
43580;SDS011;29175;51.030;4.606;2023-11-25T15:13:31;12.23;;;3.05;;
43580;SDS011;29175;51.030;4.606;2023-11-25T15:15:58;12.20;;;2.72;;
43580;SDS011;29175;51.030;4.606;2023-11-25T15:18:26;13.43;;;2.92;;
43580;SDS011;29175;51.030;4.606;2023-11-25T15:20:55;25.73;;;3.70;;
43580;SDS011;29175;51.030;4.606;2023-11-25T15:23:21;13.38;;;3.28;;
43580;SDS011;29175;51.030;4.606;2023-11-25T15:25:51;15.63;;;3.50;;
43580;SDS011;29175;51.030;4.606;2023-11-25T15:28:16;14.95;;;4.32;;
43580;SDS011;29175;51.030;4.606;2023-11-25T15:30:43;16.85;;;3.55;;
43580;SDS011;29175;51.030;4.606;2023-11-25T15:33:09;14.57;;;3.17;;
43580;SDS011;29175;51.030;4.606;2023-11-25T15:35:37;24.85;;;5.25;;
43580;SDS011;29175;51.030;4.606;2023-11-25T15:38:05;19.42;;;3.53;;